createdAt,value
2023-04-17T00:00:44.121Z,26.87
2023-04-17T00:03:14.200Z,29.23
2023-04-17T00:05:45.671Z,35.93
2023-04-17T00:08:13.658Z,31.30
2023-04-17T00:10:41.525Z,30.97
2023-04-17T00:13:09.346Z,31.67
2023-04-17T00:15:37.115Z,31.10
2023-04-17T00:18:06.587Z,28.40
2023-04-17T00:20:34.349Z,33.67
2023-04-17T00:23:02.433Z,29.00
2023-04-17T00:25:30.519Z,29.00
2023-04-17T00:27:58.353Z,29.63
2023-04-17T00:30:26.132Z,28.90
2023-04-17T00:32:53.960Z,29.33
2023-04-17T00:35:23.178Z,26.83
2023-04-17T00:37:50.950Z,26.97
2023-04-17T00:40:18.986Z,23.97
2023-04-17T00:42:52.910Z,25.07
2023-04-17T00:45:21.614Z,27.93
2023-04-17T00:47:50.478Z,26.83
2023-04-17T00:50:18.525Z,22.43
2023-04-17T00:52:48.507Z,28.73
2023-04-17T00:55:16.728Z,27.90
2023-04-17T00:57:45.782Z,30.13
2023-04-17T01:00:14.660Z,30.83
2023-04-17T01:02:42.574Z,24.87
2023-04-17T01:05:10.887Z,27.87
2023-04-17T01:07:39.624Z,29.23
2023-04-17T01:10:10.016Z,25.03
2023-04-17T01:12:37.861Z,27.37
2023-04-17T01:15:06.568Z,26.97
2023-04-17T01:17:34.461Z,28.10
2023-04-17T01:20:05.502Z,29.23
2023-04-17T01:22:35.908Z,27.50
2023-04-17T01:25:06.070Z,28.73
2023-04-17T01:27:35.260Z,24.87
2023-04-17T01:30:03.351Z,25.53
2023-04-17T01:32:31.174Z,25.90
2023-04-17T01:34:59.071Z,26.63
2023-04-17T01:37:27.297Z,23.60
2023-04-17T01:39:55.664Z,24.97
2023-04-17T01:42:24.803Z,27.60
2023-04-17T01:44:52.738Z,29.53
2023-04-17T01:47:20.601Z,25.30
2023-04-17T01:49:48.423Z,24.57
2023-04-17T01:52:16.263Z,25.70
2023-04-17T01:54:44.134Z,22.77
2023-04-17T01:57:12.107Z,23.57
2023-04-17T01:59:41.621Z,23.43
2023-04-17T02:02:09.612Z,24.30
2023-04-17T02:04:37.607Z,21.90
2023-04-17T02:07:05.578Z,20.80
2023-04-17T02:09:33.276Z,21.67
2023-04-17T02:12:01.096Z,19.83
2023-04-17T02:14:28.882Z,21.67
2023-04-17T02:16:58.312Z,19.83
2023-04-17T02:19:26.372Z,23.93
2023-04-17T02:21:54.129Z,24.03
2023-04-17T02:24:21.914Z,22.13
2023-04-17T02:26:49.665Z,20.60
2023-04-17T02:29:17.423Z,16.40
2023-04-17T02:31:45.596Z,27.13
2023-04-17T02:34:14.782Z,24.93
2023-04-17T02:36:42.546Z,20.43
2023-04-17T02:39:10.523Z,24.20
2023-04-17T02:41:38.440Z,21.43
2023-04-17T02:44:06.528Z,21.60
2023-04-17T02:46:34.388Z,27.60
2023-04-17T02:49:02.274Z,23.57
2023-04-17T02:51:31.515Z,22.10
2023-04-17T02:53:59.289Z,22.40
2023-04-17T02:56:27.100Z,22.30
2023-04-17T02:58:54.919Z,21.53
2023-04-17T03:01:22.896Z,20.17
2023-04-17T03:03:52.499Z,24.07
2023-04-17T03:06:21.581Z,21.03
2023-04-17T03:08:50.928Z,23.23
2023-04-17T03:11:18.727Z,25.83
2023-04-17T03:13:46.493Z,21.03
2023-04-17T03:16:14.321Z,22.07
2023-04-17T03:18:42.700Z,23.47
2023-04-17T03:21:10.537Z,21.40
2023-04-17T03:23:38.414Z,19.10
2023-04-17T03:26:07.640Z,21.27
2023-04-17T03:28:35.502Z,23.03
2023-04-17T03:31:03.202Z,17.90
2023-04-17T03:33:30.991Z,20.20
2023-04-17T03:35:58.807Z,22.43
2023-04-17T03:38:26.708Z,19.90
2023-04-17T03:40:54.533Z,21.37
2023-04-17T03:43:23.750Z,21.37
2023-04-17T03:45:51.698Z,19.97
2023-04-17T03:48:19.522Z,21.63
2023-04-17T03:50:48.254Z,17.50
2023-04-17T03:53:16.028Z,19.23
2023-04-17T03:55:43.839Z,18.63
2023-04-17T03:58:11.612Z,20.23
2023-04-17T04:00:40.724Z,20.90
2023-04-17T04:03:08.642Z,19.60
2023-04-17T04:05:36.475Z,19.23
2023-04-17T04:08:04.597Z,17.60
2023-04-17T04:10:33.445Z,21.30
2023-04-17T04:13:01.336Z,20.37
2023-04-17T04:15:29.110Z,22.03
2023-04-17T04:17:58.513Z,20.00
2023-04-17T04:20:26.409Z,18.57
2023-04-17T04:22:57.331Z,20.70
2023-04-17T04:25:25.878Z,21.30
2023-04-17T04:27:53.910Z,19.63
2023-04-17T04:30:21.785Z,20.77
2023-04-17T04:32:49.687Z,18.30
2023-04-17T04:35:18.979Z,18.63
2023-04-17T04:37:46.781Z,23.37
2023-04-17T04:40:14.964Z,22.03
2023-04-17T04:42:43.227Z,21.97
2023-04-17T04:45:11.855Z,21.97
2023-04-17T04:47:39.696Z,21.17
2023-04-17T04:50:08.772Z,17.50
2023-04-17T04:52:37.939Z,20.83
2023-04-17T04:55:08.864Z,20.17
2023-04-17T04:57:37.497Z,21.90
2023-04-17T05:00:08.817Z,19.13
2023-04-17T05:02:37.091Z,19.80
2023-04-17T05:05:05.546Z,22.93
2023-04-17T05:07:33.372Z,20.00
2023-04-17T05:10:02.627Z,17.33
2023-04-17T05:12:35.032Z,18.67
2023-04-17T05:15:03.407Z,17.70
2023-04-17T05:17:31.275Z,16.77
2023-04-17T05:19:59.051Z,19.37
2023-04-17T05:22:27.750Z,19.27
2023-04-17T05:24:55.521Z,21.10
2023-04-17T05:27:26.858Z,17.80
2023-04-17T05:29:54.607Z,18.80
2023-04-17T05:32:22.436Z,21.30
2023-04-17T05:34:50.220Z,20.03
2023-04-17T05:37:17.987Z,27.33
2023-04-17T05:39:45.787Z,23.73
2023-04-17T05:42:13.656Z,24.53
2023-04-17T05:44:42.799Z,22.90
2023-04-17T05:47:10.520Z,26.67
2023-04-17T05:49:38.376Z,21.20
2023-04-17T05:52:06.443Z,26.57
2023-04-17T05:54:34.286Z,23.33
2023-04-17T05:57:03.267Z,21.83
2023-04-17T05:59:31.301Z,24.23
2023-04-17T06:02:00.654Z,26.00
2023-04-17T06:04:29.439Z,26.13
2023-04-17T06:06:57.942Z,25.27
2023-04-17T06:09:26.220Z,23.37
2023-04-17T06:11:53.959Z,23.03
2023-04-17T06:14:22.151Z,23.53
2023-04-17T06:16:50.092Z,26.37
2023-04-17T06:19:20.793Z,22.97
2023-04-17T06:21:48.529Z,23.43
2023-04-17T06:24:16.576Z,24.17
2023-04-17T06:26:44.386Z,22.83
2023-04-17T06:29:12.751Z,21.87
2023-04-17T06:31:40.835Z,25.13
2023-04-17T06:34:08.686Z,23.37
2023-04-17T06:36:38.708Z,31.90
2023-04-17T06:39:06.589Z,22.47
2023-04-17T06:41:34.397Z,22.90
2023-04-17T06:44:02.087Z,21.90
2023-04-17T06:46:30.031Z,25.27
2023-04-17T06:48:59.485Z,23.63
2023-04-17T06:51:29.189Z,25.53
2023-04-17T06:53:59.314Z,21.57
2023-04-17T06:56:27.213Z,24.23
2023-04-17T06:58:55.204Z,24.53
2023-04-17T07:01:22.996Z,25.87
2023-04-17T07:03:50.959Z,18.37
2023-04-17T07:06:19.445Z,21.37
2023-04-17T07:08:47.314Z,18.33
2023-04-17T07:11:16.666Z,19.17
2023-04-17T07:13:44.601Z,18.83
2023-04-17T07:16:13.052Z,21.37
2023-04-17T07:18:40.888Z,22.47
2023-04-17T07:21:08.649Z,21.10
2023-04-17T07:23:36.601Z,20.27
2023-04-17T07:26:04.431Z,21.10
2023-04-17T07:28:34.174Z,24.67
2023-04-17T07:31:04.749Z,18.43
2023-04-17T07:33:32.667Z,22.23
2023-04-17T07:36:00.468Z,21.57
2023-04-17T07:38:28.163Z,24.20
2023-04-17T07:40:55.938Z,21.73
2023-04-17T07:43:23.746Z,21.70
2023-04-17T07:45:52.918Z,23.43
2023-04-17T07:48:22.481Z,22.80
2023-04-17T07:50:50.546Z,22.97
2023-04-17T07:53:18.888Z,20.47
2023-04-17T07:55:46.913Z,22.33
2023-04-17T07:58:16.356Z,20.17
2023-04-17T08:00:44.395Z,20.00
2023-04-17T08:03:14.691Z,31.03
2023-04-17T08:05:42.761Z,17.27
2023-04-17T08:08:10.592Z,17.73
2023-04-17T08:10:38.345Z,17.83
2023-04-17T08:13:06.143Z,17.83
2023-04-17T08:15:34.006Z,16.00
2023-04-17T08:18:01.868Z,21.47
2023-04-17T08:20:30.999Z,21.00
2023-04-17T08:22:58.729Z,20.37
2023-04-17T08:25:26.702Z,21.17
2023-04-17T08:27:54.568Z,22.83
2023-04-17T08:30:22.459Z,25.60
2023-04-17T08:32:52.234Z,24.70
2023-04-17T08:35:20.831Z,21.60
2023-04-17T08:37:50.082Z,23.90
2023-04-17T08:40:18.793Z,25.83
2023-04-17T08:42:49.593Z,22.37
2023-04-17T08:45:18.332Z,22.20
2023-04-17T08:47:46.246Z,24.07
2023-04-17T08:50:15.813Z,25.43
2023-04-17T08:52:45.070Z,23.57
2023-04-17T08:55:15.764Z,27.43
2023-04-17T08:57:57.096Z,24.53
2023-04-17T09:00:26.477Z,20.70
2023-04-17T09:02:55.772Z,22.50
2023-04-17T09:05:24.813Z,17.40
2023-04-17T09:08:08.291Z,17.57
2023-04-17T09:10:38.707Z,21.57
2023-04-17T09:13:06.930Z,20.70
2023-04-17T09:15:35.256Z,19.67
2023-04-17T09:18:03.318Z,23.17
2023-04-17T09:20:31.136Z,21.73
2023-04-17T09:23:01.996Z,19.17
2023-04-17T09:25:30.922Z,20.50
2023-04-17T09:28:12.736Z,20.30
2023-04-17T09:30:41.341Z,22.47
2023-04-17T09:33:11.846Z,23.73
2023-04-17T09:35:40.524Z,23.90
2023-04-17T09:38:08.540Z,23.90
2023-04-17T09:40:40.853Z,21.60
2023-04-17T09:43:11.396Z,21.47
2023-04-17T09:45:42.748Z,20.73
2023-04-17T09:48:12.022Z,19.23
2023-04-17T09:50:40.387Z,19.23
2023-04-17T09:53:09.013Z,21.87
2023-04-17T09:55:38.136Z,21.97
2023-04-17T09:58:08.160Z,21.67
2023-04-17T10:00:38.735Z,21.20
2023-04-17T10:03:08.453Z,21.90
2023-04-17T10:05:36.855Z,21.90
2023-04-17T10:08:05.447Z,22.47
2023-04-17T10:10:34.723Z,24.17
2023-04-17T10:13:06.632Z,24.87
2023-04-17T10:15:35.264Z,22.33
2023-04-17T10:18:24.853Z,21.13
2023-04-17T10:20:55.439Z,23.50
2023-04-17T10:23:28.196Z,23.87
2023-04-17T10:26:35.462Z,20.30
2023-04-17T10:29:03.893Z,19.27
2023-04-17T10:32:05.260Z,22.73
2023-04-17T10:34:38.323Z,19.37
2023-04-17T10:37:06.216Z,20.10
2023-04-17T10:39:54.274Z,19.63
2023-04-17T10:42:23.169Z,18.07
2023-04-17T10:44:52.036Z,22.93
2023-04-17T10:47:22.856Z,19.97
2023-04-17T10:49:53.259Z,19.17
2023-04-17T10:52:38.060Z,20.17
2023-04-17T10:55:07.938Z,17.57
2023-04-17T10:57:55.322Z,19.80
2023-04-17T11:00:31.932Z,20.17
2023-04-17T11:03:01.372Z,20.07
2023-04-17T11:05:32.332Z,17.47
2023-04-17T11:08:00.425Z,21.43
2023-04-17T11:10:28.371Z,18.87
2023-04-17T11:12:56.763Z,18.03
2023-04-17T11:15:28.958Z,16.80
2023-04-17T11:17:57.938Z,18.63
2023-04-17T11:20:27.651Z,16.37
2023-04-17T11:22:58.210Z,19.50
2023-04-17T11:25:28.120Z,19.23
2023-04-17T11:27:59.743Z,18.27
2023-04-17T11:30:33.047Z,19.60
2023-04-17T11:33:01.949Z,17.60
2023-04-17T11:35:31.426Z,17.77
2023-04-17T11:38:12.083Z,18.50
2023-04-17T11:40:44.807Z,17.67
2023-04-17T11:43:13.431Z,17.63
2023-04-17T11:45:44.021Z,18.53
2023-04-17T11:48:13.205Z,15.23
2023-04-17T11:50:43.055Z,19.10
2023-04-17T11:53:14.768Z,14.90
2023-04-17T11:55:42.744Z,16.13
2023-04-17T11:58:12.570Z,16.93
2023-04-17T12:00:41.256Z,17.43
2023-04-17T12:03:34.390Z,15.20
2023-04-17T12:06:03.990Z,15.10
2023-04-17T12:08:43.363Z,15.87
2023-04-17T12:11:18.275Z,16.20
2023-04-17T12:13:46.226Z,15.83
2023-04-17T12:16:14.612Z,13.60
2023-04-17T12:18:42.367Z,15.30
2023-04-17T12:21:10.142Z,15.73
2023-04-17T12:23:39.382Z,15.37
2023-04-17T12:26:07.225Z,15.40
2023-04-17T12:28:35.307Z,16.17
2023-04-17T12:31:04.065Z,14.50
2023-04-17T12:33:32.290Z,15.70
2023-04-17T12:36:00.374Z,14.87
2023-04-17T12:38:28.394Z,14.93
2023-04-17T12:40:57.604Z,14.20
2023-04-17T12:43:25.416Z,14.53
2023-04-17T12:45:54.140Z,16.10
2023-04-17T12:48:21.994Z,16.33
2023-04-17T12:50:49.851Z,13.83
2023-04-17T12:53:17.626Z,14.87
2023-04-17T12:55:45.407Z,13.63
2023-04-17T12:58:14.716Z,15.47
2023-04-17T13:00:43.518Z,12.97
2023-04-17T13:03:12.202Z,13.27
2023-04-17T13:05:40.599Z,13.73
2023-04-17T13:08:12.425Z,13.10
2023-04-17T13:10:40.394Z,13.03
2023-04-17T13:13:08.278Z,13.93
2023-04-17T13:15:37.468Z,10.53
2023-04-17T13:18:05.718Z,13.00
2023-04-17T13:20:33.599Z,14.20
2023-04-17T13:23:01.679Z,12.63
2023-04-17T13:25:30.987Z,12.03
2023-04-17T13:27:58.839Z,15.57
2023-04-17T13:30:26.841Z,15.07
2023-04-17T13:32:56.077Z,14.17
2023-04-17T13:35:23.896Z,10.23
2023-04-17T13:37:51.643Z,9.73
2023-04-17T13:40:19.682Z,13.90
2023-04-17T13:42:47.657Z,14.63
2023-04-17T13:45:16.032Z,14.40
2023-04-17T13:47:44.623Z,13.10
2023-04-17T13:50:13.846Z,12.70
2023-04-17T13:52:41.673Z,13.87
2023-04-17T13:55:14.375Z,14.10
2023-04-17T13:57:42.172Z,12.00
2023-04-17T14:00:11.741Z,12.60
2023-04-17T14:02:39.652Z,11.23
2023-04-17T14:05:08.166Z,13.60
2023-04-17T14:07:38.264Z,12.57
2023-04-17T14:10:07.112Z,13.27
2023-04-17T14:12:34.896Z,13.80
2023-04-17T14:15:02.632Z,12.93
2023-04-17T14:17:30.537Z,13.67
2023-04-17T14:19:58.382Z,15.73
2023-04-17T14:22:26.283Z,14.00
2023-04-17T14:24:55.729Z,11.87
2023-04-17T14:27:23.993Z,14.10
2023-04-17T14:29:51.695Z,12.07
2023-04-17T14:32:19.474Z,14.27
2023-04-17T14:34:47.282Z,15.00
2023-04-17T14:37:15.083Z,13.20
2023-04-17T14:39:42.831Z,13.90
2023-04-17T14:42:11.970Z,13.43
2023-04-17T14:44:39.769Z,14.40
2023-04-17T14:47:08.225Z,14.60
2023-04-17T14:49:36.180Z,12.33
2023-04-17T14:52:03.992Z,12.53
2023-04-17T14:54:31.813Z,14.10
2023-04-17T14:56:59.876Z,14.63
2023-04-17T14:59:29.172Z,12.80
2023-04-17T15:01:57.011Z,10.80
2023-04-17T15:04:24.937Z,11.80
2023-04-17T15:06:52.725Z,12.37
2023-04-17T15:09:20.422Z,20.83
2023-04-17T15:11:48.293Z,13.60
2023-04-17T15:14:16.061Z,11.27
2023-04-17T15:16:45.349Z,12.67
2023-04-17T15:19:13.455Z,13.33
2023-04-17T15:21:41.319Z,13.27
2023-04-17T15:24:09.075Z,13.47
2023-04-17T15:26:37.204Z,12.33
2023-04-17T15:29:04.975Z,12.20
2023-04-17T15:31:32.762Z,13.27
2023-04-17T15:34:01.977Z,12.87
2023-04-17T15:36:32.371Z,11.70
2023-04-17T15:39:00.855Z,12.37
2023-04-17T15:41:28.895Z,12.17
2023-04-17T15:43:57.296Z,9.83
2023-04-17T15:46:25.172Z,10.13
2023-04-17T15:49:07.723Z,12.37
2023-04-17T15:51:40.939Z,10.67
2023-04-17T15:54:11.966Z,10.50
2023-04-17T15:56:40.158Z,9.40
2023-04-17T15:59:08.097Z,9.30
2023-04-17T16:01:35.890Z,10.53
2023-04-17T16:04:03.999Z,10.00
2023-04-17T16:06:32.379Z,11.43
2023-04-17T16:09:01.832Z,10.67
2023-04-17T16:11:29.592Z,11.70
2023-04-17T16:13:57.486Z,11.87
2023-04-17T16:16:25.341Z,8.67
2023-04-17T16:18:53.160Z,10.33
2023-04-17T16:21:21.033Z,10.50
2023-04-17T16:23:49.528Z,10.10
2023-04-17T16:26:18.753Z,10.40
2023-04-17T16:28:46.903Z,14.60
2023-04-17T16:31:16.422Z,10.67
2023-04-17T16:33:44.935Z,9.57
2023-04-17T16:36:12.826Z,12.90
2023-04-17T16:38:40.650Z,22.87
2023-04-17T16:41:08.443Z,25.73
2023-04-17T16:43:37.611Z,26.40
2023-04-17T16:46:18.385Z,21.90
2023-04-17T16:48:49.184Z,24.00
2023-04-17T16:51:17.009Z,29.43
2023-04-17T16:53:44.758Z,30.57
2023-04-17T16:56:12.716Z,33.97
2023-04-17T16:58:41.998Z,28.47
2023-04-17T17:01:09.978Z,23.43
2023-04-17T17:03:38.505Z,25.87
2023-04-17T17:06:07.116Z,23.63
2023-04-17T17:08:34.912Z,26.97
2023-04-17T17:11:03.622Z,18.53
2023-04-17T17:13:31.691Z,15.77
2023-04-17T17:16:01.037Z,14.10
2023-04-17T17:18:28.939Z,13.07
2023-04-17T17:20:58.633Z,14.40
2023-04-17T17:23:26.558Z,13.03
2023-04-17T17:25:54.350Z,15.37
2023-04-17T17:28:22.212Z,15.37
2023-04-17T17:30:49.904Z,17.07
2023-04-17T17:33:19.041Z,16.87
2023-04-17T17:35:46.744Z,14.33
2023-04-17T17:38:14.555Z,13.67
2023-04-17T17:40:42.302Z,19.07
2023-04-17T17:43:11.598Z,14.40
2023-04-17T17:45:39.709Z,17.77
2023-04-17T17:48:09.617Z,16.03
2023-04-17T17:50:38.718Z,14.07
2023-04-17T17:53:06.496Z,15.63
2023-04-17T17:55:37.353Z,17.23
2023-04-17T17:58:05.254Z,16.30
2023-04-17T18:00:33.116Z,19.23
2023-04-17T18:03:01.150Z,16.10
2023-04-17T18:05:29.120Z,18.23
2023-04-17T18:07:58.336Z,18.90
2023-04-17T18:10:26.095Z,16.63
2023-04-17T18:12:53.939Z,17.10
2023-04-17T18:15:21.698Z,17.67
2023-04-17T18:17:49.574Z,17.23
2023-04-17T18:20:17.550Z,17.40
2023-04-17T18:22:45.300Z,21.10
2023-04-17T18:25:14.569Z,18.97
2023-04-17T18:27:42.337Z,17.80
2023-04-17T18:30:11.006Z,19.30
2023-04-17T18:32:38.923Z,20.20
2023-04-17T18:35:07.925Z,20.00
2023-04-17T18:37:35.830Z,18.20
2023-04-17T18:40:03.894Z,21.07
2023-04-17T18:42:33.012Z,20.57
2023-04-17T18:45:00.862Z,17.53
2023-04-17T18:47:29.292Z,19.67
2023-04-17T18:49:57.159Z,18.60
2023-04-17T18:52:25.080Z,20.37
2023-04-17T18:54:52.831Z,17.23
2023-04-17T18:57:20.636Z,19.87
2023-04-17T18:59:49.947Z,20.43
2023-04-17T19:02:17.807Z,21.00
2023-04-17T19:04:45.882Z,21.67
2023-04-17T19:07:13.820Z,20.60
2023-04-17T19:09:41.638Z,19.07
2023-04-17T19:12:10.196Z,18.93
2023-04-17T19:14:37.936Z,15.83
2023-04-17T19:17:07.111Z,19.00
2023-04-17T19:19:34.891Z,17.03
2023-04-17T19:22:02.731Z,22.23
2023-04-17T19:24:30.455Z,18.83
2023-04-17T19:26:58.584Z,19.87
2023-04-17T19:29:28.126Z,17.47
2023-04-17T19:31:56.008Z,20.53
2023-04-17T19:34:25.596Z,21.50
2023-04-17T19:36:53.439Z,18.40
2023-04-17T19:39:21.228Z,19.73
2023-04-17T19:41:51.883Z,19.07
2023-04-17T19:44:19.844Z,20.60
2023-04-17T19:46:47.765Z,19.40
2023-04-17T19:49:16.339Z,18.20
2023-04-17T19:51:45.964Z,18.00
2023-04-17T19:54:15.291Z,20.50
2023-04-17T19:56:43.116Z,20.47
2023-04-17T19:59:12.592Z,18.43
2023-04-17T20:01:43.441Z,21.23
2023-04-17T20:04:11.960Z,19.50
2023-04-17T20:06:40.931Z,21.27
2023-04-17T20:09:12.564Z,20.03
2023-04-17T20:11:42.287Z,20.63
2023-04-17T20:14:11.248Z,18.13
2023-04-17T20:16:39.063Z,17.30
2023-04-17T20:19:06.961Z,17.43
2023-04-17T20:21:34.826Z,18.17
2023-04-17T20:24:02.548Z,16.80
2023-04-17T20:26:31.710Z,19.60
2023-04-17T20:28:59.504Z,20.60
2023-04-17T20:31:27.437Z,17.60
2023-04-17T20:33:55.168Z,18.03
2023-04-17T20:36:22.864Z,18.53
2023-04-17T20:38:50.676Z,21.83
2023-04-17T20:41:18.542Z,17.20
2023-04-17T20:43:57.684Z,19.73
2023-04-17T20:46:25.510Z,20.03
2023-04-17T20:48:53.515Z,19.63
2023-04-17T20:51:24.994Z,19.60
2023-04-17T20:53:52.977Z,20.23
2023-04-17T20:56:21.344Z,17.70
2023-04-17T20:58:50.678Z,18.23
2023-04-17T21:01:20.139Z,19.50
2023-04-17T21:03:48.280Z,20.33
2023-04-17T21:06:17.808Z,19.83
2023-04-17T21:08:45.725Z,21.97
2023-04-17T21:11:13.536Z,18.03
2023-04-17T21:13:41.325Z,22.93
2023-04-17T21:16:12.809Z,17.23
2023-04-17T21:18:41.126Z,17.80
2023-04-17T21:21:08.958Z,18.77
2023-04-17T21:23:36.693Z,19.87
2023-04-17T21:26:04.952Z,17.07
2023-04-17T21:28:32.922Z,18.60
2023-04-17T21:31:00.657Z,20.33
2023-04-17T21:33:29.789Z,17.97
2023-04-17T21:35:57.540Z,15.97
2023-04-17T21:38:26.471Z,17.87
2023-04-17T21:40:54.418Z,15.77
2023-04-17T21:43:22.259Z,16.27
2023-04-17T21:45:50.286Z,15.37
2023-04-17T21:48:18.198Z,16.80
2023-04-17T21:50:47.300Z,16.30
2023-04-17T21:53:15.101Z,18.20
2023-04-17T21:55:42.920Z,17.03
2023-04-17T21:58:10.870Z,14.37
2023-04-17T22:00:38.627Z,16.07
2023-04-17T22:03:06.421Z,15.80
2023-04-17T22:05:34.227Z,18.07
2023-04-17T22:08:03.400Z,14.30
2023-04-17T22:10:31.233Z,15.20
2023-04-17T22:12:59.306Z,16.53
2023-04-17T22:15:27.069Z,13.40
2023-04-17T22:17:54.967Z,15.57
2023-04-17T22:20:58.858Z,15.70
2023-04-17T22:23:46.411Z,13.60
2023-04-17T22:26:31.592Z,16.80
2023-04-17T22:29:17.924Z,13.37
2023-04-17T22:32:03.198Z,13.83
2023-04-17T22:35:07.398Z,15.67
2023-04-17T22:37:53.972Z,15.37
2023-04-17T22:40:42.608Z,17.00
2023-04-17T22:43:29.065Z,14.67
2023-04-17T22:46:14.301Z,14.43
2023-04-17T22:49:18.323Z,14.47
2023-04-17T22:52:23.575Z,16.20
2023-04-17T22:55:08.911Z,13.97
2023-04-17T22:57:38.116Z,15.10
2023-04-17T23:00:24.315Z,20.03
2023-04-17T23:03:11.129Z,15.23
2023-04-17T23:06:15.136Z,16.07
2023-04-17T23:08:42.859Z,14.33
2023-04-17T23:11:10.804Z,14.50
2023-04-17T23:13:39.910Z,14.50
2023-04-17T23:16:08.277Z,14.03
2023-04-17T23:18:37.108Z,15.90
2023-04-17T23:21:05.102Z,14.77
2023-04-17T23:23:32.859Z,15.67
2023-04-17T23:26:00.627Z,14.80
2023-04-17T23:28:30.543Z,16.93
2023-04-17T23:30:59.856Z,12.23
2023-04-17T23:33:27.706Z,16.33
2023-04-17T23:35:55.503Z,14.43
2023-04-17T23:38:23.277Z,17.27
2023-04-17T23:40:51.209Z,15.70
2023-04-17T23:43:18.956Z,19.37
2023-04-17T23:45:46.741Z,17.20
2023-04-17T23:48:15.968Z,17.23
2023-04-17T23:50:43.812Z,18.50
2023-04-17T23:53:11.579Z,16.13
2023-04-17T23:55:39.547Z,14.53
2023-04-17T23:58:07.598Z,24.40
